Fecha, hora, temperatura, viento dirección y velocidad, humedad y presión.

  • 19-03-2019 23:00:00 | 2.10°C | Noroeste |3.00 km/h | 46.00% | 0.00 hPa
  • 19-03-2019 22:00:00 | 3.10°C | Oeste |5.00 km/h | 42.00% | 0.00 hPa
  • 19-03-2019 21:00:00 | 3.80°C | Norte |17.00 km/h | 39.00% | 0.00 hPa
  • 19-03-2019 20:00:00 | 4.60°C | Norte |24.00 km/h | 38.00% | 0.00 hPa
  • 19-03-2019 19:00:00 | 5.90°C | Norte |22.00 km/h | 34.00% | 0.00 hPa
  • 19-03-2019 18:00:00 | 7.70°C | Norte |32.00 km/h | 31.00% | 0.00 hPa
  • 19-03-2019 17:00:00 | 8.60°C | Norte |31.00 km/h | 31.00% | 0.00 hPa
  • 19-03-2019 16:00:00 | 10.70°C | Nordeste |23.00 km/h | 28.00% | 0.00 hPa
  • 19-03-2019 15:00:00 | 11.40°C | Nordeste |19.00 km/h | 29.00% | 0.00 hPa
  • 19-03-2019 14:00:00 | 8.10°C | Nordeste |26.00 km/h | 32.00% | 0.00 hPa
  • 19-03-2019 13:00:00 | 8.20°C | Norte |26.00 km/h | 33.00% | 0.00 hPa
  • 19-03-2019 12:00:00 | 8.90°C | Nordeste |18.00 km/h | 34.00% | 0.00 hPa
  • 19-03-2019 11:00:00 | 8.00°C | Norte |4.00 km/h | 46.00% | 0.00 hPa
  • 19-03-2019 10:00:00 | 4.80°C | Calma |0.00 km/h | 67.00% | 0.00 hPa
  • 19-03-2019 09:00:00 | 2.90°C | Sur |3.00 km/h | 79.00% | 0.00 hPa
  • 19-03-2019 08:00:00 | 0.40°C | Sudoeste |5.00 km/h | 85.00% | 0.00 hPa
  • 19-03-2019 07:00:00 | 0.10°C | Sudoeste |5.00 km/h | 85.00% | 0.00 hPa
  • 19-03-2019 06:00:00 | 0.00°C | Calma |0.00 km/h | 84.00% | 0.00 hPa
  • 19-03-2019 05:00:00 | 0.30°C | Oeste |6.00 km/h | 83.00% | 0.00 hPa
  • 19-03-2019 04:00:00 | 0.60°C | Oeste |5.00 km/h | 81.00% | 0.00 hPa
  • 19-03-2019 03:00:00 | 0.90°C | Oeste |6.00 km/h | 79.00% | 0.00 hPa
  • 19-03-2019 02:00:00 | 1.40°C | Noroeste |3.00 km/h | 72.00% | 0.00 hPa
  • 19-03-2019 01:00:00 | 2.40°C | Noroeste |5.00 km/h | 55.00% | 0.00 hPa
  • 19-03-2019 00:00:00 | 4.30°C | Sur |3.00 km/h | 44.00% | 0.00 hPa
    • diseño web asturias Información sobre el estado de las mareas, altura de la marejada, temperatura del agua y otros datos de Gijón en Asturias.

      Surf Gijón